Time;durP1;ratioP1;P1;durP2;ratioP2;P2;SDS_P1;SDS_P2;PMS_P1;PMS_P2;Temp;Humidity;BMP_temperature;BMP_pressure;BME280_temperature;BME280_humidity;BME280_pressure;Samples;Min_cycle;Max_cycle;Signal;HPM_P1;HPM_P2
2021/01/17 00:02:23;;;;;;;6.77;5.80;;;11.10;99.90;;;;;;5101007;28;20484;-28
2021/01/17 00:04:53;;;;;;;6.63;5.90;;;11.00;99.90;;;;;;5100794;28;20472;-33
2021/01/17 00:07:23;;;;;;;8.50;6.00;;;11.00;99.90;;;;;;5109277;28;20459;-35
2021/01/17 00:09:54;;;;;;;7.70;6.30;;;11.20;99.90;;;;;;5100117;28;20809;-37
2021/01/17 00:12:24;;;;;;;7.00;6.37;;;11.10;99.90;;;;;;5093495;28;20472;-37
2021/01/17 00:14:54;;;;;;;8.33;6.43;;;11.00;99.90;;;;;;5095487;28;20599;-33
2021/01/17 00:17:24;;;;;;;8.80;5.60;;;11.00;99.90;;;;;;5096146;28;20928;-31
2021/01/17 00:19:56;;;;;;;10.10;7.87;;;10.90;99.90;;;;;;5096447;28;20476;-33
2021/01/17 00:22:26;;;;;;;6.73;6.10;;;11.00;99.90;;;;;;5101171;28;20505;-32
2021/01/17 00:24:57;;;;;;;6.77;6.07;;;11.00;99.90;;;;;;5100902;28;20481;-37
2021/01/17 00:27:27;;;;;;;10.10;6.07;;;11.10;99.90;;;;;;5106007;28;20447;-31
2021/01/17 00:29:57;;;;;;;7.30;6.60;;;11.00;99.90;;;;;;5107450;28;20453;-34
2021/01/17 00:32:28;;;;;;;9.73;6.50;;;11.10;99.90;;;;;;5100189;28;20456;-34
2021/01/17 00:34:58;;;;;;;6.80;6.20;;;11.00;99.90;;;;;;5103233;28;20440;-32
2021/01/17 00:37:28;;;;;;;6.30;5.73;;;11.10;99.90;;;;;;5104936;28;20481;-34
2021/01/17 00:39:59;;;;;;;7.23;6.30;;;11.00;99.90;;;;;;5105941;28;20503;-31
2021/01/17 00:42:29;;;;;;;7.43;6.73;;;10.90;99.90;;;;;;5104394;28;20429;-32
2021/01/17 00:44:59;;;;;;;7.07;6.43;;;10.70;99.90;;;;;;5101985;28;20470;-37
2021/01/17 00:47:29;;;;;;;7.43;6.60;;;10.70;99.90;;;;;;5094654;28;20296;-35
2021/01/17 00:49:59;;;;;;;7.78;6.40;;;10.70;99.90;;;;;;5102101;28;20328;-32
2021/01/17 00:52:29;;;;;;;7.28;6.57;;;10.70;99.90;;;;;;5095095;28;20197;-29
2021/01/17 00:55:01;;;;;;;14.50;13.07;;;10.70;99.90;;;;;;5101407;28;21983;-29
2021/01/17 00:57:30;;;;;;;8.95;8.05;;;10.60;99.90;;;;;;5099331;28;20213;-33
2021/01/17 01:00:01;;;;;;;7.75;6.70;;;10.60;99.90;;;;;;5103303;28;20223;-33
2021/01/17 01:02:30;;;;;;;7.90;7.20;;;10.40;99.90;;;;;;5111223;28;20279;-33
2021/01/17 01:05:02;;;;;;;8.30;7.50;;;10.30;99.90;;;;;;5109177;28;20235;-33
2021/01/17 01:07:32;;;;;;;9.70;7.22;;;10.20;99.90;;;;;;5094351;28;20202;-34
2021/01/17 01:10:05;;;;;;;9.32;8.43;;;10.00;99.90;;;;;;5096119;28;20243;-32
2021/01/17 01:12:35;;;;;;;7.55;6.80;;;10.00;99.90;;;;;;5098686;28;20258;-34
2021/01/17 01:15:06;;;;;;;8.45;7.63;;;9.80;99.90;;;;;;5104675;28;20268;-37
2021/01/17 01:17:36;;;;;;;8.82;8.02;;;9.80;99.90;;;;;;5096607;28;20221;-30
2021/01/17 01:20:07;;;;;;;9.40;8.07;;;9.70;99.90;;;;;;5102041;28;20197;-34
2021/01/17 01:22:42;;;;;;;9.30;8.40;;;9.60;99.90;;;;;;5094905;28;20344;-33
2021/01/17 01:25:14;;;;;;;9.52;8.52;;;9.50;99.90;;;;;;5104441;28;20194;-32
2021/01/17 01:27:47;;;;;;;8.50;7.70;;;9.40;99.90;;;;;;5103226;28;20249;-33
2021/01/17 01:30:18;;;;;;;9.02;8.23;;;9.30;99.90;;;;;;5103783;28;20257;-34
2021/01/17 01:32:52;;;;;;;9.43;8.52;;;9.20;99.90;;;;;;5105327;27;20192;-33
2021/01/17 01:35:22;;;;;;;8.48;7.63;;;9.20;99.90;;;;;;5102102;28;20268;-33
2021/01/17 01:37:54;;;;;;;8.35;7.50;;;9.20;99.90;;;;;;5094899;28;20215;-35
2021/01/17 01:40:26;;;;;;;9.88;8.93;;;9.10;99.90;;;;;;5111018;28;20245;-35
2021/01/17 01:42:56;;;;;;;9.20;8.38;;;9.00;99.90;;;;;;5111315;28;20192;-33
2021/01/17 01:45:26;;;;;;;9.80;8.90;;;8.90;99.90;;;;;;5111056;28;20344;-35
2021/01/17 01:47:56;;;;;;;10.18;9.18;;;8.90;99.90;;;;;;5110929;28;20235;-38
2021/01/17 01:50:26;;;;;;;10.27;9.32;;;8.90;99.90;;;;;;5104726;28;20300;-36
2021/01/17 01:52:56;;;;;;;10.15;9.15;;;8.90;99.90;;;;;;5100135;28;20200;-31
2021/01/17 01:55:27;;;;;;;12.20;9.43;;;8.90;99.90;;;;;;5095465;28;20188;-35
2021/01/17 01:58:01;;;;;;;11.38;9.80;;;8.80;99.90;;;;;;5096476;28;20212;-35
2021/01/17 02:00:31;;;;;;;12.77;11.43;;;8.70;99.90;;;;;;5093764;28;20193;-35
2021/01/17 02:03:02;;;;;;;11.77;10.68;;;8.70;99.90;;;;;;5097732;28;20193;-33
2021/01/17 02:05:32;;;;;;;11.60;10.57;;;8.80;99.90;;;;;;5095207;28;20229;-35
2021/01/17 02:08:26;;;;;;;10.50;8.70;;;8.80;99.90;;;;;;5101254;28;20277;-37
2021/01/17 02:11:01;;;;;;;11.00;10.00;;;8.80;99.90;;;;;;5099556;28;20189;-30
2021/01/17 02:13:37;;;;;;;11.70;10.70;;;8.70;99.90;;;;;;5100064;28;20244;-35
2021/01/17 02:16:09;;;;;;;11.45;10.25;;;8.70;99.90;;;;;;5100307;28;20216;-34
2021/01/17 02:18:42;;;;;;;13.18;10.88;;;8.70;99.90;;;;;;5100023;28;20364;-32
2021/01/17 02:21:13;;;;;;;10.77;9.73;;;8.70;99.90;;;;;;5101664;28;20253;-32
2021/01/17 02:23:50;;;;;;;12.60;11.45;;;8.60;99.90;;;;;;5093330;28;20189;-32
2021/01/17 02:26:21;;;;;;;13.27;11.98;;;8.60;99.90;;;;;;5097762;28;20184;-33
2021/01/17 02:28:52;;;;;;;12.30;11.20;;;8.60;99.90;;;;;;5097808;28;20617;-36
2021/01/17 02:31:22;;;;;;;12.80;11.40;;;8.50;99.90;;;;;;5096745;28;20241;-31
2021/01/17 02:33:53;;;;;;;12.55;11.40;;;8.50;99.90;;;;;;5100099;28;20216;-34
2021/01/17 02:36:34;;;;;;;12.98;11.68;;;8.50;99.90;;;;;;5104006;28;20325;-31
2021/01/17 02:39:11;;;;;;;15.35;13.90;;;8.40;99.90;;;;;;5093201;28;20745;-33
2021/01/17 02:41:56;;;;;;;14.10;12.80;;;8.40;99.90;;;;;;5098326;28;20187;-31
2021/01/17 02:44:28;;;;;;;14.52;13.13;;;8.40;99.90;;;;;;5103843;28;20196;-34
2021/01/17 02:46:58;;;;;;;14.50;13.13;;;8.40;99.90;;;;;;5095051;28;20193;-33
2021/01/17 02:49:30;;;;;;;13.85;12.48;;;8.30;99.90;;;;;;5091679;28;20419;-32
2021/01/17 02:52:06;;;;;;;14.20;12.93;;;8.20;99.90;;;;;;5097204;28;20196;-38
2021/01/17 02:54:39;;;;;;;13.70;12.23;;;8.10;99.90;;;;;;5100472;28;20272;-31
2021/01/17 02:57:11;;;;;;;14.20;12.80;;;8.20;99.90;;;;;;5098825;28;20242;-34
2021/01/17 02:59:50;;;;;;;13.80;12.38;;;8.30;99.90;;;;;;5095458;28;20492;-30
2021/01/17 03:02:23;;;;;;;14.55;11.45;;;8.30;99.90;;;;;;5096369;28;20236;-33
2021/01/17 03:04:58;;;;;;;14.52;13.05;;;8.30;99.90;;;;;;5095921;28;20219;-33
2021/01/17 03:07:32;;;;;;;14.00;12.70;;;8.30;99.90;;;;;;5088617;28;20188;-33
2021/01/17 03:10:03;;;;;;;13.40;12.10;;;8.30;99.90;;;;;;5089809;28;20248;-31
2021/01/17 03:12:34;;;;;;;14.50;13.05;;;8.30;99.90;;;;;;5094580;28;20680;-35
2021/01/17 03:15:06;;;;;;;14.90;13.40;;;8.20;99.90;;;;;;5096891;28;20600;-34
2021/01/17 03:17:36;;;;;;;14.90;13.60;;;8.10;99.90;;;;;;5100292;28;20204;-33
2021/01/17 03:20:07;;;;;;;15.25;12.68;;;8.20;99.90;;;;;;5097168;28;20632;-34
2021/01/17 03:22:37;;;;;;;14.80;13.35;;;8.20;99.90;;;;;;5108173;28;20189;-35
2021/01/17 03:25:08;;;;;;;15.95;14.45;;;8.20;99.90;;;;;;5101798;28;20204;-37
2021/01/17 03:27:39;;;;;;;16.40;14.80;;;8.20;99.90;;;;;;5108131;28;20331;-35
2021/01/17 03:30:10;;;;;;;15.65;14.10;;;8.30;99.90;;;;;;5110028;28;20230;-32
2021/01/17 03:32:40;;;;;;;18.13;14.25;;;8.30;99.90;;;;;;5109681;28;20193;-32
2021/01/17 03:35:12;;;;;;;16.33;14.68;;;8.40;99.90;;;;;;5098891;28;20188;-31
2021/01/17 03:37:42;;;;;;;15.70;14.05;;;8.40;99.90;;;;;;5102304;28;20420;-33
2021/01/17 03:40:13;;;;;;;16.92;15.00;;;8.30;99.90;;;;;;5093685;28;20196;-32
2021/01/17 03:42:44;;;;;;;16.10;14.50;;;8.10;99.90;;;;;;5099855;28;20262;-33
2021/01/17 03:45:15;;;;;;;16.23;14.73;;;8.20;99.90;;;;;;5095956;28;20201;-31
2021/01/17 03:47:45;;;;;;;15.60;14.00;;;8.10;99.90;;;;;;5097004;28;20663;-33
2021/01/17 03:50:16;;;;;;;16.45;14.70;;;8.10;99.90;;;;;;5094871;28;20613;-33
2021/01/17 03:52:46;;;;;;;16.45;14.90;;;8.10;99.90;;;;;;5092989;28;20288;-30
2021/01/17 03:55:16;;;;;;;16.58;14.93;;;8.00;99.90;;;;;;5099126;28;20223;-34
2021/01/17 03:57:47;;;;;;;16.08;14.57;;;8.00;99.90;;;;;;5094082;28;20249;-30
2021/01/17 04:00:18;;;;;;;19.23;17.35;;;8.00;99.90;;;;;;5097072;28;20221;-31
2021/01/17 04:02:48;;;;;;;16.83;15.30;;;8.10;99.90;;;;;;5100312;28;20199;-31
2021/01/17 04:05:18;;;;;;;17.13;15.43;;;8.10;99.90;;;;;;5098330;28;20227;-34
2021/01/17 04:07:49;;;;;;;16.35;14.70;;;8.10;99.90;;;;;;5101900;28;20593;-32
2021/01/17 04:10:19;;;;;;;17.65;15.93;;;8.20;99.90;;;;;;5096830;28;20586;-31
2021/01/17 04:12:50;;;;;;;20.58;18.58;;;8.20;99.90;;;;;;5100582;28;20320;-33
2021/01/17 04:15:20;;;;;;;19.23;17.38;;;8.20;99.90;;;;;;5096396;28;20184;-31
2021/01/17 04:17:50;;;;;;;19.77;17.90;;;8.30;99.90;;;;;;5101854;28;20228;-33
2021/01/17 04:20:20;;;;;;;19.98;17.88;;;8.20;99.90;;;;;;5094867;28;20271;-30
2021/01/17 04:22:50;;;;;;;19.70;17.70;;;8.30;99.90;;;;;;5097864;28;20261;-32
2021/01/17 04:25:21;;;;;;;18.50;16.77;;;8.30;99.90;;;;;;5098861;28;20204;-32
2021/01/17 04:27:52;;;;;;;17.92;16.33;;;8.30;99.90;;;;;;5097552;28;20226;-36
2021/01/17 04:30:26;;;;;;;20.25;18.25;;;8.30;99.90;;;;;;5096190;28;20217;-36
2021/01/17 04:32:57;;;;;;;19.02;17.02;;;8.30;99.90;;;;;;5103510;28;20181;-39
2021/01/17 04:35:27;;;;;;;17.15;15.60;;;8.30;99.90;;;;;;5096907;28;20262;-32
2021/01/17 04:37:58;;;;;;;19.05;17.08;;;8.20;99.90;;;;;;5103165;28;20311;-36
2021/01/17 04:40:29;;;;;;;18.58;16.77;;;8.20;99.90;;;;;;5099530;28;20237;-37
2021/01/17 04:43:08;;;;;;;20.38;18.38;;;8.20;99.90;;;;;;5095931;28;20185;-33
2021/01/17 04:45:38;;;;;;;20.05;17.95;;;8.30;99.90;;;;;;5097043;28;20180;-34
2021/01/17 04:48:09;;;;;;;20.10;18.08;;;8.10;99.90;;;;;;5102634;28;20227;-33
2021/01/17 04:50:41;;;;;;;20.75;18.65;;;7.90;99.90;;;;;;5101353;28;20189;-32
2021/01/17 04:53:12;;;;;;;22.27;19.92;;;7.80;99.90;;;;;;5104078;28;20185;-33
2021/01/17 04:55:42;;;;;;;19.63;17.73;;;7.90;99.90;;;;;;5102696;28;20253;-29
2021/01/17 04:58:19;;;;;;;21.80;19.23;;;7.80;99.90;;;;;;5096649;28;20243;-30
2021/01/17 05:00:58;;;;;;;23.48;21.25;;;7.80;99.90;;;;;;5092578;28;20657;-28
2021/01/17 05:03:54;;;;;;;21.02;18.92;;;7.70;99.90;;;;;;5103649;28;20194;-30
2021/01/17 05:06:40;;;;;;;21.25;18.98;;;7.70;99.90;;;;;;5102519;28;20188;-34
2021/01/17 05:09:20;;;;;;;22.95;20.65;;;7.60;99.90;;;;;;5103958;28;20619;-31
2021/01/17 05:11:52;;;;;;;21.38;19.27;;;7.60;99.90;;;;;;5105433;28;20268;-32
2021/01/17 05:14:39;;;;;;;22.35;20.15;;;7.60;99.90;;;;;;5100413;28;20200;-33
2021/01/17 05:17:09;;;;;;;23.58;21.08;;;7.60;99.90;;;;;;5092434;28;20184;-32
2021/01/17 05:46:35;;;;;;;23.30;21.08;;;7.80;99.90;;;;;;5254442;23;20730;-35
2021/01/17 05:49:13;;;;;;;23.75;21.25;;;7.90;99.90;;;;;;4977517;28;20204;-35
2021/01/17 05:51:44;;;;;;;25.45;22.77;;;7.80;99.90;;;;;;4981103;28;20212;-36
2021/01/17 05:54:14;;;;;;;23.75;21.52;;;7.80;99.90;;;;;;4985232;28;20315;-36
2021/01/17 05:56:45;;;;;;;22.15;19.90;;;7.80;99.90;;;;;;4970767;28;20618;-36
2021/01/17 05:59:15;;;;;;;24.77;22.17;;;7.80;99.90;;;;;;4976691;28;20235;-36
2021/01/17 06:01:47;;;;;;;23.80;21.42;;;7.70;99.90;;;;;;4983203;28;20200;-44
2021/01/17 06:09:41;;;;;;;22.80;20.40;;;7.70;99.90;;;;;;6034422;23;21160;-49
2021/01/17 06:12:29;;;;;;;24.40;20.02;;;7.80;99.90;;;;;;4984673;28;20200;-48
2021/01/17 06:15:08;;;;;;;21.77;19.23;;;7.80;99.90;;;;;;4978841;28;20201;-46
2021/01/17 06:17:45;;;;;;;20.40;18.20;;;7.90;99.90;;;;;;4972802;28;20209;-52
2021/01/17 06:20:21;;;;;;;20.08;17.98;;;8.00;99.90;;;;;;4975835;28;20216;-48
2021/01/17 06:22:58;;;;;;;20.77;18.60;;;8.00;99.90;;;;;;4982792;28;20236;-50
2021/01/17 06:25:29;;;;;;;25.50;19.48;;;8.00;99.90;;;;;;4982730;28;20204;-52
2021/01/17 06:28:09;;;;;;;22.90;19.10;;;7.90;99.90;;;;;;4992033;28;20208;-49
2021/01/17 06:30:41;;;;;;;19.30;17.02;;;7.90;99.90;;;;;;4986626;28;20212;-47
2021/01/17 06:33:23;;;;;;;19.88;17.77;;;7.90;99.90;;;;;;4988931;28;20214;-49
2021/01/17 06:36:15;;;;;;;19.73;17.05;;;8.00;99.90;;;;;;4984738;28;20210;-52
2021/01/17 06:38:45;;;;;;;23.35;18.67;;;7.90;99.90;;;;;;4984864;28;20307;-50
2021/01/17 06:41:27;;;;;;;21.70;19.05;;;7.90;99.90;;;;;;4989022;28;20278;-48
2021/01/17 06:44:08;;;;;;;22.25;19.38;;;8.00;99.90;;;;;;4986397;28;20263;-53
2021/01/17 06:46:44;;;;;;;21.35;18.27;;;8.00;99.90;;;;;;4983336;28;20208;-52
2021/01/17 06:49:20;;;;;;;20.70;17.80;;;8.00;99.90;;;;;;4984017;28;20233;-52
2021/01/17 06:51:51;;;;;;;19.92;16.90;;;8.00;99.90;;;;;;4988597;28;20658;-51
2021/01/17 06:54:23;;;;;;;20.15;17.70;;;8.00;99.90;;;;;;4984469;28;20200;-51
2021/01/17 06:56:59;;;;;;;17.60;15.77;;;7.90;99.90;;;;;;4985200;28;20209;-48
2021/01/17 06:59:36;;;;;;;21.20;18.17;;;7.90;99.90;;;;;;4983033;28;20232;-55
2021/01/17 07:02:40;;;;;;;21.58;18.83;;;7.90;99.90;;;;;;4982899;28;20255;-50
2021/01/17 07:05:46;;;;;;;21.83;19.42;;;8.00;99.90;;;;;;4985458;28;20204;-51
2021/01/17 07:08:57;;;;;;;22.15;19.95;;;8.00;99.90;;;;;;4984293;28;20208;-49
2021/01/17 07:11:56;;;;;;;22.33;19.75;;;8.00;99.90;;;;;;4980948;28;20327;-50
2021/01/17 07:14:29;;;;;;;22.67;19.02;;;7.90;99.90;;;;;;4983817;28;20209;-50
2021/01/17 07:17:00;;;;;;;21.17;18.35;;;7.90;99.90;;;;;;4983071;28;20239;-51
2021/01/17 07:19:33;;;;;;;21.52;19.23;;;7.90;99.90;;;;;;4984242;28;20224;-46
2021/01/17 07:22:06;;;;;;;23.38;19.80;;;7.80;99.90;;;;;;4983373;28;20211;-52
2021/01/17 07:24:36;;;;;;;20.85;18.65;;;7.70;99.90;;;;;;4980901;28;20272;-53
2021/01/17 07:27:54;;;;;;;20.52;18.42;;;7.60;99.90;;;;;;4984497;28;20212;-50
2021/01/17 07:30:41;;;;;;;23.60;19.58;;;7.60;99.90;;;;;;4975141;28;20279;-50
2021/01/17 07:33:13;;;;;;;23.00;20.60;;;7.70;99.90;;;;;;4985243;28;20323;-53
2021/01/17 07:35:44;;;;;;;22.48;20.08;;;7.60;99.90;;;;;;4979242;28;20209;-51
2021/01/17 07:38:20;;;;;;;24.20;21.23;;;7.50;99.90;;;;;;4982732;28;20267;-49
2021/01/17 07:40:54;;;;;;;26.70;21.60;;;7.50;99.90;;;;;;4984537;28;20236;-50
2021/01/17 07:43:27;;;;;;;24.10;19.73;;;7.40;99.90;;;;;;4984328;28;20216;-51
2021/01/17 07:45:58;;;;;;;23.88;20.33;;;7.40;99.90;;;;;;4981967;28;20197;-52
2021/01/17 07:48:29;;;;;;;22.85;19.10;;;7.30;99.90;;;;;;4983748;28;20209;-49
2021/01/17 07:51:00;;;;;;;22.42;19.45;;;7.40;99.90;;;;;;4982923;28;20205;-51
2021/01/17 07:53:45;;;;;;;23.95;19.35;;;7.40;99.90;;;;;;4986869;28;20259;-50
2021/01/17 07:56:17;;;;;;;24.67;20.55;;;7.40;99.90;;;;;;4981890;28;20204;-52
2021/01/17 07:58:48;;;;;;;23.20;19.85;;;7.50;99.90;;;;;;4991258;28;20231;-50
2021/01/17 08:01:46;;;;;;;24.10;20.13;;;7.50;99.90;;;;;;4988960;28;20208;-50
2021/01/17 08:04:32;;;;;;;22.88;18.65;;;7.50;99.90;;;;;;4987093;28;20208;-51
2021/01/17 08:07:02;;;;;;;25.45;19.20;;;7.60;99.90;;;;;;4985977;28;20216;-52
2021/01/17 08:09:51;;;;;;;23.58;18.25;;;7.60;99.90;;;;;;4988344;28;20552;-51
2021/01/17 08:12:43;;;;;;;20.52;17.80;;;7.80;99.90;;;;;;4985905;28;20236;-51
2021/01/17 08:15:17;;;;;;;24.30;18.73;;;7.90;99.90;;;;;;4988414;28;20200;-51
2021/01/17 08:17:47;;;;;;;20.85;17.50;;;8.00;99.90;;;;;;4988781;28;20212;-52
2021/01/17 08:20:31;;;;;;;24.88;17.25;;;8.00;99.90;;;;;;4986919;28;20655;-49
2021/01/17 08:23:19;;;;;;;23.80;18.30;;;8.00;99.90;;;;;;4990487;28;20201;-49
2021/01/17 08:25:56;;;;;;;20.75;17.30;;;8.10;99.90;;;;;;4986989;28;20213;-51
2021/01/17 08:28:41;;;;;;;23.35;17.75;;;8.10;99.90;;;;;;4985634;28;20259;-52
2021/01/17 08:31:42;;;;;;;23.52;16.70;;;8.10;99.90;;;;;;4985518;28;20208;-48
2021/01/17 08:34:14;;;;;;;25.80;19.13;;;8.20;99.90;;;;;;4985960;28;20196;-48
2021/01/17 08:36:46;;;;;;;21.60;15.65;;;8.30;99.90;;;;;;4993416;28;20218;-48
2021/01/17 08:39:36;;;;;;;22.60;16.55;;;8.30;99.90;;;;;;4986606;28;20251;-50
2021/01/17 08:42:38;;;;;;;21.65;15.35;;;8.30;99.90;;;;;;4990333;28;20204;-50
2021/01/17 08:45:35;;;;;;;19.98;14.95;;;8.30;99.90;;;;;;4985336;28;20209;-52
2021/01/17 08:48:37;;;;;;;18.85;15.20;;;8.20;99.90;;;;;;4993173;28;20223;-49
2021/01/17 08:51:23;;;;;;;20.42;14.45;;;8.20;99.90;;;;;;4985953;28;20208;-52
2021/01/17 08:53:54;;;;;;;21.75;16.05;;;8.30;99.90;;;;;;4988026;28;20219;-48
2021/01/17 08:56:25;;;;;;;23.52;15.60;;;8.30;99.90;;;;;;4988812;28;20303;-52
2021/01/17 08:58:56;;;;;;;22.95;15.25;;;8.30;99.90;;;;;;4997640;28;20255;-49
2021/01/17 09:01:27;;;;;;;21.48;16.40;;;8.40;99.90;;;;;;4995481;28;20271;-49
2021/01/17 09:04:00;;;;;;;24.35;17.58;;;8.30;99.90;;;;;;4985084;28;20201;-49
2021/01/17 09:06:33;;;;;;;26.23;18.30;;;8.30;99.90;;;;;;4983913;28;20247;-48
2021/01/17 09:09:09;;;;;;;27.15;17.77;;;8.30;99.90;;;;;;4985783;28;20212;-48
2021/01/17 09:11:41;;;;;;;29.17;17.65;;;8.30;99.90;;;;;;4986018;28;20236;-51
2021/01/17 09:14:17;;;;;;;27.90;18.13;;;8.10;99.90;;;;;;4992088;28;20205;-50
2021/01/17 09:16:53;;;;;;;24.30;18.30;;;8.10;99.90;;;;;;4988707;28;20200;-50
2021/01/17 09:19:30;;;;;;;24.92;17.23;;;8.10;99.90;;;;;;4985652;28;20228;-46
2021/01/17 09:22:03;;;;;;;24.85;18.05;;;8.20;99.90;;;;;;4985195;28;20225;-50
2021/01/17 09:24:35;;;;;;;26.50;19.52;;;8.20;99.90;;;;;;4984758;28;20223;-48
2021/01/17 09:27:11;;;;;;;21.73;15.98;;;8.10;99.90;;;;;;4996062;28;20266;-49
2021/01/17 09:29:43;;;;;;;27.60;18.73;;;8.20;99.90;;;;;;4997396;28;20250;-50
2021/01/17 09:32:18;;;;;;;24.10;16.80;;;8.20;99.90;;;;;;4996970;28;20211;-47
2021/01/17 09:34:50;;;;;;;35.55;19.52;;;8.20;99.90;;;;;;4986469;28;20559;-49
2021/01/17 09:37:21;;;;;;;24.67;17.08;;;8.20;99.90;;;;;;4985947;28;20204;-47
2021/01/17 09:39:53;;;;;;;29.33;18.08;;;8.10;99.90;;;;;;4984082;28;20236;-49
2021/01/17 09:42:27;;;;;;;27.92;18.17;;;8.20;99.90;;;;;;4983703;28;20236;-50
2021/01/17 09:44:58;;;;;;;28.63;18.85;;;8.20;99.90;;;;;;4992424;28;20256;-50
2021/01/17 09:47:30;;;;;;;28.83;18.77;;;8.20;99.90;;;;;;4986289;28;20267;-50
2021/01/17 09:50:09;;;;;;;27.08;17.30;;;8.20;99.90;;;;;;4987263;28;20235;-49
2021/01/17 09:52:40;;;;;;;27.27;18.75;;;8.20;99.90;;;;;;4990440;28;20196;-49
2021/01/17 09:55:11;;;;;;;28.58;18.95;;;8.20;99.90;;;;;;4993333;28;20197;-49
2021/01/17 09:57:43;;;;;;;27.38;18.88;;;8.30;99.90;;;;;;4989574;28;20528;-47
2021/01/17 10:00:20;;;;;;;23.58;17.98;;;8.40;99.90;;;;;;4991773;28;20224;-49
2021/01/17 10:02:51;;;;;;;30.30;19.10;;;8.30;99.90;;;;;;4990650;28;20219;-51
2021/01/17 10:05:27;;;;;;;29.08;19.25;;;8.30;99.90;;;;;;4986004;28;20236;-52
2021/01/17 10:08:01;;;;;;;27.08;18.55;;;8.30;99.90;;;;;;4984074;28;20204;-51
2021/01/17 10:10:50;;;;;;;28.35;18.70;;;8.30;99.90;;;;;;4983816;28;20227;-49
2021/01/17 10:13:20;;;;;;;22.65;15.82;;;8.30;99.90;;;;;;4984413;28;20212;-50
2021/01/17 10:15:54;;;;;;;25.38;18.30;;;8.30;99.90;;;;;;4983004;28;20205;-49
2021/01/17 10:18:26;;;;;;;27.25;18.88;;;8.40;99.90;;;;;;4991182;28;20693;-51
2021/01/17 10:20:57;;;;;;;28.08;18.02;;;8.30;99.90;;;;;;4981403;28;20224;-52
2021/01/17 10:23:32;;;;;;;26.42;17.65;;;8.30;99.90;;;;;;4987711;28;20192;-48
2021/01/17 10:26:02;;;;;;;24.25;17.55;;;8.10;99.90;;;;;;4981636;28;20203;-49
2021/01/17 10:28:32;;;;;;;23.13;18.00;;;8.10;99.90;;;;;;4983628;28;20614;-50
2021/01/17 10:31:02;;;;;;;20.70;16.88;;;8.10;99.90;;;;;;4992122;28;20201;-49
2021/01/17 10:33:34;;;;;;;24.27;15.80;;;8.20;99.90;;;;;;4984392;28;20381;-45
2021/01/17 10:36:05;;;;;;;21.05;15.82;;;8.20;99.90;;;;;;4981437;28;20214;-47
2021/01/17 10:38:35;;;;;;;24.10;16.67;;;8.30;99.90;;;;;;4981578;28;20232;-47
2021/01/17 10:41:28;;;;;;;21.70;13.93;;;8.20;99.90;;;;;;4983239;28;20239;-46
2021/01/17 10:44:08;;;;;;;19.00;14.68;;;8.30;99.90;;;;;;4984883;28;20196;-48
2021/01/17 10:46:43;;;;;;;19.25;14.60;;;8.20;99.90;;;;;;4991388;28;20228;-47
2021/01/17 10:49:20;;;;;;;19.73;14.75;;;8.30;99.90;;;;;;4983415;28;20240;-46
2021/01/17 10:51:54;;;;;;;19.88;14.73;;;8.30;99.90;;;;;;4991287;28;20208;-48
2021/01/17 10:54:25;;;;;;;21.52;14.93;;;8.20;99.90;;;;;;4988278;28;20271;-47
2021/01/17 10:57:02;;;;;;;19.38;15.60;;;8.30;99.90;;;;;;4990023;28;20268;-49
2021/01/17 10:59:32;;;;;;;19.05;14.65;;;8.30;99.90;;;;;;4979588;28;20231;-44
2021/01/17 11:02:03;;;;;;;23.70;16.33;;;8.30;99.90;;;;;;4989640;28;20200;-48
2021/01/17 11:04:43;;;;;;;19.30;15.00;;;8.30;99.90;;;;;;4994864;28;20304;-48
2021/01/17 11:07:15;;;;;;;21.75;14.75;;;8.40;99.90;;;;;;4991862;28;20271;-45
2021/01/17 11:09:46;;;;;;;19.50;13.70;;;8.40;99.90;;;;;;4984944;28;20240;-47
2021/01/17 11:12:34;;;;;;;20.42;15.35;;;8.30;99.90;;;;;;4980422;28;20213;-46
2021/01/17 11:15:16;;;;;;;19.30;13.52;;;8.20;99.90;;;;;;4988479;28;20212;-48
2021/01/17 11:17:56;;;;;;;16.10;12.80;;;8.20;99.90;;;;;;4983952;28;20268;-45
2021/01/17 11:20:33;;;;;;;21.25;14.68;;;8.20;99.90;;;;;;4984352;28;20729;-48
2021/01/17 11:23:07;;;;;;;17.63;13.38;;;8.30;99.90;;;;;;4981903;28;20197;-45
2021/01/17 11:25:37;;;;;;;17.98;13.57;;;8.20;99.90;;;;;;4981981;28;20204;-51
2021/01/17 11:28:13;;;;;;;15.80;12.65;;;8.30;99.90;;;;;;4984489;28;20255;-49
2021/01/17 11:30:43;;;;;;;14.75;12.68;;;8.30;99.90;;;;;;4982763;28;20236;-51
2021/01/17 11:33:14;;;;;;;13.57;12.10;;;8.30;99.90;;;;;;4982741;28;20314;-47
2021/01/17 11:35:45;;;;;;;15.75;12.30;;;8.20;99.90;;;;;;4983834;28;20223;-49
2021/01/17 11:38:15;;;;;;;18.20;13.10;;;8.30;99.90;;;;;;4982024;28;20200;-51
2021/01/17 11:40:46;;;;;;;14.48;12.88;;;8.30;99.90;;;;;;4991942;28;20220;-47
2021/01/17 11:43:16;;;;;;;16.00;11.80;;;8.30;99.90;;;;;;4982564;28;20267;-48
2021/01/17 11:45:46;;;;;;;15.20;12.00;;;8.30;99.90;;;;;;4991094;28;20260;-51
2021/01/17 11:48:16;;;;;;;15.25;12.60;;;8.30;99.90;;;;;;4984092;28;20220;-51
2021/01/17 11:50:48;;;;;;;17.15;13.45;;;8.40;99.90;;;;;;4987509;28;20589;-48
2021/01/17 11:53:18;;;;;;;15.32;12.02;;;8.40;99.90;;;;;;4989812;28;20237;-49
2021/01/17 11:55:51;;;;;;;15.85;13.07;;;8.40;99.90;;;;;;4996047;28;20216;-53
2021/01/17 11:58:21;;;;;;;15.35;12.07;;;8.40;99.90;;;;;;4981396;28;20205;-51
2021/01/17 12:00:54;;;;;;;16.70;13.15;;;8.50;99.90;;;;;;4983816;28;20205;-51
2021/01/17 12:03:31;;;;;;;15.60;12.07;;;8.50;99.90;;;;;;4982442;28;20559;-54
2021/01/17 12:06:12;;;;;;;16.70;12.40;;;8.40;99.90;;;;;;4980349;28;20208;-52
2021/01/17 12:08:59;;;;;;;14.48;10.80;;;8.30;99.90;;;;;;4982785;28;20584;-48
2021/01/17 12:11:45;;;;;;;12.07;10.55;;;8.30;99.90;;;;;;4981706;28;20248;-49
2021/01/17 12:14:16;;;;;;;13.93;10.10;;;8.30;99.90;;;;;;4981658;28;20200;-51
2021/01/17 12:16:50;;;;;;;14.45;10.60;;;8.20;99.90;;;;;;4991231;28;20213;-49
2021/01/17 12:19:21;;;;;;;11.23;9.65;;;8.10;99.90;;;;;;4988977;28;20231;-51
2021/01/17 12:21:56;;;;;;;11.65;10.20;;;8.20;99.90;;;;;;4987439;28;20215;-51
2021/01/17 12:24:26;;;;;;;11.90;10.57;;;8.10;99.90;;;;;;4982847;28;20208;-51
2021/01/17 12:26:57;;;;;;;12.50;10.90;;;8.20;99.90;;;;;;4983939;28;20201;-50
2021/01/17 12:29:27;;;;;;;12.43;10.25;;;8.10;99.90;;;;;;4990819;28;20204;-47
2021/01/17 12:31:57;;;;;;;13.93;11.27;;;8.10;99.90;;;;;;4981953;28;20275;-51
2021/01/17 12:34:27;;;;;;;11.80;10.50;;;8.00;99.90;;;;;;4982858;28;20205;-51
2021/01/17 12:36:58;;;;;;;13.65;11.35;;;8.10;99.90;;;;;;4979781;28;20205;-51
2021/01/17 12:39:28;;;;;;;13.82;10.90;;;8.10;99.90;;;;;;4979424;28;20226;-52
2021/01/17 12:41:59;;;;;;;14.23;11.07;;;8.10;99.90;;;;;;4977203;28;20209;-50
2021/01/17 12:44:29;;;;;;;12.60;10.90;;;8.10;99.90;;;;;;4987693;28;20216;-46
2021/01/17 12:46:58;;;;;;;12.48;9.95;;;8.10;99.90;;;;;;4994222;28;20197;-50
2021/01/17 12:49:29;;;;;;;12.90;11.27;;;8.10;99.90;;;;;;4985429;28;20267;-50
2021/01/17 12:52:00;;;;;;;11.23;10.02;;;8.00;99.90;;;;;;4991031;28;20258;-51
2021/01/17 12:54:30;;;;;;;14.75;11.65;;;8.10;99.90;;;;;;4993571;28;20215;-53
2021/01/17 12:57:00;;;;;;;12.73;10.30;;;8.10;99.90;;;;;;4987013;28;20204;-51
2021/01/17 12:59:30;;;;;;;13.98;10.73;;;8.10;99.90;;;;;;4985643;28;20263;-45
2021/01/17 13:02:04;;;;;;;13.60;11.00;;;8.10;99.90;;;;;;4983613;28;20256;-49
2021/01/17 13:04:34;;;;;;;12.75;11.20;;;8.10;99.90;;;;;;4985910;28;20278;-52
2021/01/17 13:07:07;;;;;;;14.07;12.20;;;8.20;99.90;;;;;;4984790;28;20279;-47
2021/01/17 13:09:37;;;;;;;13.90;12.27;;;8.10;99.90;;;;;;4990476;28;21056;-49
2021/01/17 13:12:08;;;;;;;13.50;11.57;;;8.20;99.90;;;;;;4990593;28;20246;-48
2021/01/17 13:14:38;;;;;;;11.90;10.57;;;8.20;99.90;;;;;;5000039;28;20200;-44
2021/01/17 13:17:08;;;;;;;11.35;10.15;;;8.20;99.90;;;;;;4990009;28;20204;-49
2021/01/17 13:19:39;;;;;;;10.95;9.75;;;8.30;99.90;;;;;;4999316;28;20270;-48
2021/01/17 13:22:11;;;;;;;10.55;9.45;;;8.20;99.90;;;;;;4983589;28;20208;-44
2021/01/17 13:24:41;;;;;;;13.27;10.20;;;8.20;99.90;;;;;;4985967;28;20308;-51
2021/01/17 13:27:11;;;;;;;12.57;9.50;;;8.20;99.90;;;;;;4984321;28;20240;-52
2021/01/17 13:29:41;;;;;;;11.70;9.98;;;8.20;99.90;;;;;;4986014;28;20220;-50
2021/01/17 13:32:11;;;;;;;10.60;9.50;;;8.30;99.90;;;;;;4993302;28;20485;-51
2021/01/17 13:34:41;;;;;;;12.45;10.40;;;8.30;99.90;;;;;;4985608;28;20277;-51
2021/01/17 13:37:16;;;;;;;10.75;9.30;;;8.30;99.90;;;;;;4984665;28;20212;-47
2021/01/17 13:39:47;;;;;;;12.20;9.70;;;8.30;99.90;;;;;;4991204;28;20251;-48
2021/01/17 13:42:23;;;;;;;13.00;10.55;;;8.40;99.90;;;;;;4994573;28;20211;-50
2021/01/17 13:44:57;;;;;;;12.02;9.98;;;8.30;99.90;;;;;;4988895;28;20274;-49
2021/01/17 13:47:28;;;;;;;11.35;9.23;;;8.30;99.90;;;;;;4982854;28;20224;-51